createdAt,value
2022-10-21T00:01:16.167Z,87.66
2022-10-21T00:03:43.595Z,89.07
2022-10-21T00:06:11.481Z,89.78
2022-10-21T00:08:39.127Z,88.36
2022-10-21T00:11:09.103Z,88.49
2022-10-21T00:13:40.259Z,88.68
2022-10-21T00:16:14.348Z,88.03
2022-10-21T00:18:46.012Z,89.84
2022-10-21T00:21:22.988Z,88.22
2022-10-21T00:23:50.224Z,89.89
2022-10-21T00:26:18.998Z,90.99
2022-10-21T00:28:48.333Z,90.52
2022-10-21T00:31:16.268Z,90.63
2022-10-21T00:33:49.072Z,90.48
2022-10-21T00:36:18.478Z,90.62
2022-10-21T00:38:50.429Z,91.37
2022-10-21T00:41:19.553Z,91.60
2022-10-21T00:44:14.405Z,91.25
2022-10-21T00:46:49.552Z,89.24
2022-10-21T00:49:51.760Z,91.10
2022-10-21T00:52:26.158Z,90.89
2022-10-21T00:54:56.315Z,91.12
2022-10-21T00:57:28.570Z,91.19
2022-10-21T01:00:02.097Z,91.92
2022-10-21T01:02:32.267Z,92.05
2022-10-21T01:05:03.671Z,93.05
2022-10-21T01:07:37.580Z,92.40
2022-10-21T01:10:08.253Z,92.85
2022-10-21T01:12:47.272Z,91.80
2022-10-21T01:15:53.740Z,92.72
2022-10-21T01:18:28.410Z,93.01
2022-10-21T01:21:13.982Z,92.90
2022-10-21T01:24:19.748Z,93.72
2022-10-21T01:27:21.122Z,95.21
2022-10-21T01:30:31.845Z,93.74
2022-10-21T01:33:08.044Z,94.38
2022-10-21T01:35:51.560Z,93.59
2022-10-21T01:38:39.403Z,92.90
2022-10-21T01:41:48.921Z,92.69
2022-10-21T01:44:29.011Z,92.30
2022-10-21T01:47:24.290Z,92.93
2022-10-21T01:50:08.446Z,91.95
2022-10-21T01:52:40.454Z,92.30
2022-10-21T01:55:13.961Z,92.06
2022-10-21T01:57:58.954Z,93.52
2022-10-21T02:03:03.393Z,93.24
2022-10-21T02:05:32.812Z,94.14
2022-10-21T02:07:59.790Z,95.01
2022-10-21T02:10:35.444Z,94.17
2022-10-21T02:13:12.403Z,93.06
2022-10-21T02:15:45.276Z,92.54
2022-10-21T02:18:25.020Z,92.98
2022-10-21T02:20:59.456Z,94.30
2022-10-21T02:23:51.409Z,92.08
2022-10-21T02:26:21.190Z,93.11
2022-10-21T02:28:51.253Z,92.88
2022-10-21T02:31:51.624Z,91.31
2022-10-21T02:34:47.207Z,91.71
2022-10-21T02:37:29.839Z,90.79
2022-10-21T02:40:05.641Z,89.19
2022-10-21T02:42:41.177Z,91.83
2022-10-21T02:45:10.171Z,91.15
2022-10-21T02:47:43.380Z,92.85
2022-10-21T02:50:10.627Z,91.90
2022-10-21T02:52:40.626Z,93.06
2022-10-21T02:55:08.169Z,93.32
2022-10-21T02:57:35.382Z,95.03
2022-10-21T03:00:02.517Z,94.54
2022-10-21T03:02:33.995Z,93.00
2022-10-21T03:05:03.734Z,92.45
2022-10-21T03:07:30.921Z,91.37
2022-10-21T03:10:01.001Z,92.70
2022-10-21T03:12:28.183Z,92.96
2022-10-21T03:14:57.335Z,92.46
2022-10-21T03:17:25.404Z,92.33
2022-10-21T03:19:52.501Z,92.28
2022-10-21T03:22:19.356Z,91.67
2022-10-21T03:24:48.342Z,93.01
2022-10-21T03:27:15.184Z,93.46
2022-10-21T03:29:44.513Z,93.05
2022-10-21T03:32:15.863Z,92.25
2022-10-21T03:34:45.215Z,91.89
2022-10-21T03:37:14.334Z,93.46
2022-10-21T03:39:41.197Z,93.30
2022-10-21T03:42:08.042Z,92.91
2022-10-21T03:44:37.419Z,93.70
2022-10-21T03:47:07.142Z,92.97
2022-10-21T03:52:06.252Z,93.14
2022-10-21T03:54:37.977Z,91.12
2022-10-21T03:57:05.229Z,90.40
2022-10-21T03:59:35.939Z,90.60
2022-10-21T04:02:02.912Z,90.78
2022-10-21T04:04:32.384Z,90.52
2022-10-21T04:06:59.257Z,91.75
2022-10-21T04:09:29.037Z,92.48
2022-10-21T04:11:55.865Z,92.45
2022-10-21T04:14:27.406Z,92.68
2022-10-21T04:17:07.363Z,93.51
2022-10-21T04:19:35.038Z,93.99
2022-10-21T04:22:01.871Z,92.71
2022-10-21T04:24:33.331Z,93.31
2022-10-21T04:27:02.694Z,93.13
2022-10-21T04:29:31.994Z,93.46
2022-10-21T04:32:01.142Z,93.82
2022-10-21T04:34:32.573Z,93.98
2022-10-21T04:37:05.205Z,95.41
2022-10-21T04:39:35.286Z,94.91
2022-10-21T04:42:05.155Z,95.61
2022-10-21T04:44:32.145Z,94.36
2022-10-21T04:47:04.483Z,93.34
2022-10-21T04:49:32.441Z,94.09
2022-10-21T04:51:59.288Z,93.23
2022-10-21T04:54:26.121Z,93.53
2022-10-21T04:56:52.963Z,93.77
2022-10-21T04:59:21.885Z,93.88
2022-10-21T05:01:48.792Z,93.85
2022-10-21T05:04:15.677Z,93.65
2022-10-21T05:06:42.595Z,93.09
2022-10-21T05:09:10.207Z,94.18
2022-10-21T05:11:39.599Z,92.77
2022-10-21T05:14:06.425Z,92.23
2022-10-21T05:16:33.256Z,93.19
2022-10-21T05:19:00.398Z,93.13
2022-10-21T05:21:32.723Z,92.58
2022-10-21T05:23:59.625Z,92.37
2022-10-21T05:26:29.151Z,93.08
2022-10-21T05:28:56.063Z,93.01
2022-10-21T05:31:22.927Z,92.31
2022-10-21T05:33:49.851Z,92.83
2022-10-21T05:36:18.516Z,93.29
2022-10-21T05:38:47.434Z,93.27
2022-10-21T05:41:14.367Z,92.68
2022-10-21T05:43:44.094Z,93.67
2022-10-21T05:46:16.041Z,93.45
2022-10-21T05:48:45.503Z,93.52
2022-10-21T05:51:14.565Z,94.15
2022-10-21T05:53:44.378Z,95.04
2022-10-21T05:56:13.965Z,96.37
2022-10-21T05:58:42.954Z,97.07
2022-10-21T06:01:09.858Z,95.71
2022-10-21T06:03:36.946Z,93.82
2022-10-21T06:06:08.031Z,94.27
2022-10-21T06:08:42.509Z,93.83
2022-10-21T06:11:14.440Z,92.15
2022-10-21T06:13:45.808Z,93.24
2022-10-21T06:16:14.143Z,92.23
2022-10-21T06:18:44.262Z,91.33
2022-10-21T06:21:14.182Z,89.66
2022-10-21T06:23:43.579Z,91.18
2022-10-21T06:26:18.764Z,90.54
2022-10-21T06:28:47.865Z,90.62
2022-10-21T06:31:23.555Z,89.96
2022-10-21T06:33:50.438Z,91.08
2022-10-21T06:36:23.389Z,90.33
2022-10-21T06:38:50.288Z,89.64
2022-10-21T06:41:18.659Z,90.14
2022-10-21T06:43:49.805Z,88.87
2022-10-21T06:46:21.688Z,89.56
2022-10-21T06:48:49.602Z,90.12
2022-10-21T06:51:24.909Z,89.96
2022-10-21T06:53:57.347Z,90.74
2022-10-21T06:56:31.808Z,88.37
2022-10-21T06:58:59.108Z,86.79
2022-10-21T07:01:41.016Z,86.47
2022-10-21T07:04:15.169Z,86.22
2022-10-21T07:06:46.102Z,85.44
2022-10-21T07:09:13.318Z,85.84
2022-10-21T07:11:44.819Z,87.10
2022-10-21T07:14:14.256Z,87.57
2022-10-21T07:16:41.140Z,86.88
2022-10-21T07:19:10.270Z,88.30
2022-10-21T07:21:39.285Z,87.84
2022-10-21T07:24:10.010Z,87.30
2022-10-21T07:26:43.619Z,87.34
2022-10-21T07:29:10.481Z,88.49
2022-10-21T07:31:42.530Z,89.09
2022-10-21T07:34:14.080Z,87.45
2022-10-21T07:36:52.689Z,85.80
2022-10-21T07:39:24.192Z,82.54
2022-10-21T07:41:54.433Z,82.80
2022-10-21T07:44:30.121Z,81.63
2022-10-21T07:46:59.231Z,80.04
2022-10-21T07:49:26.087Z,78.38
2022-10-21T07:51:53.853Z,78.21
2022-10-21T07:54:20.969Z,78.96
2022-10-21T07:56:57.028Z,80.83
2022-10-21T07:59:25.115Z,82.16
2022-10-21T08:01:57.751Z,84.15
2022-10-21T08:04:29.844Z,84.79
2022-10-21T08:06:57.310Z,85.96
2022-10-21T08:09:26.804Z,86.76
2022-10-21T08:11:53.696Z,86.24
2022-10-21T08:14:20.581Z,87.03
2022-10-21T08:16:52.956Z,85.31
2022-10-21T08:19:27.275Z,85.65
2022-10-21T08:21:54.470Z,86.77
2022-10-21T08:24:23.650Z,86.23
2022-10-21T08:26:51.607Z,87.12
2022-10-21T08:29:18.549Z,88.53
2022-10-21T08:31:47.969Z,87.74
2022-10-21T08:34:14.914Z,87.94
2022-10-21T08:36:46.420Z,87.04
2022-10-21T08:39:13.197Z,87.06
2022-10-21T08:42:10.934Z,86.72
2022-10-21T08:44:44.532Z,86.47
2022-10-21T08:47:35.547Z,87.78
2022-10-21T08:50:11.159Z,87.27
2022-10-21T08:52:49.225Z,86.42
2022-10-21T08:55:34.387Z,85.11
2022-10-21T08:58:05.278Z,83.78
2022-10-21T09:00:49.093Z,84.55
2022-10-21T09:03:37.018Z,83.90
2022-10-21T09:06:15.241Z,85.44
2022-10-21T09:08:57.476Z,84.51
2022-10-21T09:11:51.704Z,84.45
2022-10-21T09:14:36.487Z,83.32
2022-10-21T09:17:41.308Z,83.95
2022-10-21T09:20:29.984Z,83.21
2022-10-21T09:23:13.400Z,83.07
2022-10-21T09:26:18.801Z,85.49
2022-10-21T09:28:48.960Z,82.47
2022-10-21T09:31:21.431Z,79.25
2022-10-21T09:33:59.777Z,76.00
2022-10-21T09:36:35.258Z,77.18
2022-10-21T09:39:28.590Z,77.66
2022-10-21T09:42:11.378Z,77.16
2022-10-21T09:44:42.897Z,78.73
2022-10-21T09:47:23.581Z,78.22
2022-10-21T09:50:08.505Z,79.32
2022-10-21T09:52:37.806Z,78.95
2022-10-21T09:55:05.554Z,76.83
2022-10-21T09:57:46.350Z,75.90
2022-10-21T10:00:14.116Z,76.04
2022-10-21T10:02:44.299Z,74.30
2022-10-21T10:05:49.765Z,73.21
2022-10-21T10:08:38.191Z,73.44
2022-10-21T10:11:12.945Z,71.00
2022-10-21T10:13:52.204Z,67.94
2022-10-21T10:16:28.500Z,66.44
2022-10-21T10:19:28.309Z,63.55
2022-10-21T10:22:17.548Z,62.37
2022-10-21T10:24:45.182Z,64.20
2022-10-21T10:27:26.617Z,62.03
2022-10-21T10:29:56.674Z,57.89
2022-10-21T10:32:33.008Z,55.10
2022-10-21T10:35:04.932Z,53.09
2022-10-21T10:37:37.530Z,48.21
2022-10-21T10:40:24.582Z,46.78
2022-10-21T10:43:15.969Z,45.49
2022-10-21T10:46:04.804Z,45.13
2022-10-21T10:48:53.318Z,49.17
2022-10-21T10:51:35.907Z,50.65
2022-10-21T10:54:21.923Z,54.57
2022-10-21T10:56:59.456Z,55.16
2022-10-21T10:59:40.408Z,57.49
2022-10-21T11:02:10.174Z,58.50
2022-10-21T11:05:08.103Z,58.05
2022-10-21T11:07:44.256Z,57.92
2022-10-21T11:10:47.393Z,57.05
2022-10-21T11:13:23.347Z,55.71
2022-10-21T11:16:31.425Z,58.11
2022-10-21T11:19:15.290Z,60.65
2022-10-21T11:21:51.790Z,61.07
2022-10-21T11:24:52.056Z,60.90
2022-10-21T11:27:35.343Z,62.13
2022-10-21T11:30:17.643Z,62.04
2022-10-21T11:33:10.934Z,60.20
2022-10-21T11:36:01.834Z,59.47
2022-10-21T11:39:07.798Z,56.72
2022-10-21T11:42:16.508Z,57.83
2022-10-21T11:45:02.908Z,55.98
2022-10-21T11:47:52.130Z,58.31
2022-10-21T11:50:39.703Z,58.03
2022-10-21T11:53:36.750Z,58.62
2022-10-21T11:56:29.916Z,57.14
2022-10-21T11:59:21.070Z,57.27
2022-10-21T12:02:02.894Z,59.16
2022-10-21T12:04:34.722Z,58.31
2022-10-21T12:07:22.577Z,55.30
2022-10-21T12:09:51.989Z,54.27
2022-10-21T12:12:25.712Z,52.15
2022-10-21T12:15:00.166Z,55.09
2022-10-21T12:17:27.110Z,56.37
2022-10-21T12:20:00.010Z,58.23
2022-10-21T12:22:29.573Z,61.19
2022-10-21T12:25:14.540Z,63.45
2022-10-21T12:28:05.973Z,65.42
2022-10-21T12:31:06.180Z,67.93
2022-10-21T12:33:45.107Z,68.44
2022-10-21T12:36:43.492Z,67.36
2022-10-21T12:39:33.064Z,66.31
2022-10-21T12:42:06.948Z,65.56
2022-10-21T12:44:36.835Z,65.71
2022-10-21T12:47:43.757Z,66.58
2022-10-21T12:50:33.367Z,66.62
2022-10-21T12:53:42.912Z,67.45
2022-10-21T12:56:32.216Z,67.11
2022-10-21T12:59:06.804Z,68.44
2022-10-21T13:01:47.920Z,66.81
2022-10-21T13:04:34.783Z,67.43
2022-10-21T13:07:13.419Z,67.72
2022-10-21T13:09:46.343Z,70.51
2022-10-21T13:12:23.849Z,73.14
2022-10-21T13:14:55.745Z,72.72
2022-10-21T13:17:22.563Z,73.92
2022-10-21T13:19:53.894Z,73.00
2022-10-21T13:22:37.999Z,74.13
2022-10-21T13:25:16.990Z,76.52
2022-10-21T13:27:51.676Z,77.71
2022-10-21T13:30:36.802Z,80.43
2022-10-21T13:33:13.665Z,80.43
2022-10-21T13:36:14.830Z,80.22
2022-10-21T13:38:54.455Z,81.66
2022-10-21T13:41:35.834Z,81.17
2022-10-21T13:44:07.413Z,81.90
2022-10-21T13:46:43.670Z,83.13
2022-10-21T13:49:33.178Z,83.73
2022-10-21T13:52:12.599Z,84.20
2022-10-21T13:57:11.370Z,83.35
2022-10-21T13:59:38.227Z,82.80
2022-10-21T14:02:05.245Z,82.53
2022-10-21T14:04:42.948Z,82.76
2022-10-21T14:07:19.171Z,84.27
2022-10-21T14:09:48.174Z,83.69
2022-10-21T14:12:38.191Z,83.38
2022-10-21T14:15:21.890Z,83.38
2022-10-21T14:17:55.333Z,82.59
2022-10-21T14:20:33.993Z,84.14
2022-10-21T14:23:07.076Z,84.01
2022-10-21T14:25:34.878Z,84.17
2022-10-21T14:28:05.565Z,83.36
2022-10-21T14:30:34.156Z,82.46
2022-10-21T14:33:04.995Z,83.43
2022-10-21T14:35:34.292Z,83.11
2022-10-21T14:38:04.044Z,83.09
2022-10-21T14:40:35.831Z,83.34
2022-10-21T14:43:17.668Z,84.13
2022-10-21T14:45:51.335Z,84.33
2022-10-21T14:48:38.450Z,84.60
2022-10-21T14:51:17.840Z,85.13
2022-10-21T14:54:08.280Z,84.42
2022-10-21T14:56:41.517Z,83.30
2022-10-21T14:59:38.288Z,84.03
2022-10-21T15:02:27.565Z,84.42
2022-10-21T15:04:59.704Z,83.55
2022-10-21T15:07:39.467Z,83.83
2022-10-21T15:10:10.107Z,85.80
2022-10-21T15:12:45.743Z,85.44
2022-10-21T15:15:40.334Z,85.25
2022-10-21T15:18:43.012Z,84.76
2022-10-21T15:21:11.674Z,84.55
2022-10-21T15:23:44.844Z,85.15
2022-10-21T15:26:23.986Z,85.79
2022-10-21T15:29:26.514Z,86.84
2022-10-21T15:31:56.831Z,87.40
2022-10-21T15:34:27.536Z,87.83
2022-10-21T15:36:54.405Z,87.69
2022-10-21T15:39:21.449Z,87.67
2022-10-21T15:41:54.879Z,87.85
2022-10-21T15:44:31.661Z,88.41
2022-10-21T15:47:08.750Z,89.21
2022-10-21T15:49:43.163Z,89.38
2022-10-21T15:52:14.535Z,89.62
2022-10-21T15:54:42.263Z,90.78
2022-10-21T15:57:19.862Z,91.66
2022-10-21T15:59:48.038Z,91.72
2022-10-21T16:02:17.802Z,92.29
2022-10-21T16:04:46.516Z,92.13
2022-10-21T16:07:28.940Z,92.56
2022-10-21T16:09:56.902Z,92.99
2022-10-21T16:12:30.528Z,91.89
2022-10-21T16:14:57.360Z,92.74
2022-10-21T16:17:28.489Z,92.25
2022-10-21T16:19:55.367Z,91.56
2022-10-21T16:22:24.055Z,92.56
2022-10-21T16:24:53.973Z,91.12
2022-10-21T16:27:43.455Z,91.76
2022-10-21T16:30:22.183Z,92.01
2022-10-21T16:32:50.263Z,92.57
2022-10-21T16:35:21.096Z,92.78
2022-10-21T16:37:50.818Z,92.30
2022-10-21T16:40:23.743Z,91.86
2022-10-21T16:42:56.366Z,92.09
2022-10-21T16:45:28.283Z,92.65
2022-10-21T16:48:01.896Z,94.58
2022-10-21T16:50:40.805Z,93.31
2022-10-21T16:53:13.944Z,93.43
2022-10-21T16:55:43.750Z,93.05
2022-10-21T16:58:10.931Z,93.66
2022-10-21T17:00:43.166Z,94.35
2022-10-21T17:03:15.978Z,95.42
2022-10-21T17:05:42.867Z,95.13
2022-10-21T17:08:09.876Z,95.22
2022-10-21T17:10:36.939Z,94.57
2022-10-21T17:13:04.049Z,95.52
2022-10-21T17:15:31.096Z,95.64
2022-10-21T17:17:59.230Z,95.90
2022-10-21T17:20:32.788Z,95.47
2022-10-21T17:23:07.444Z,95.34
2022-10-21T17:25:39.376Z,95.63
2022-10-21T17:28:06.960Z,97.28
2022-10-21T17:30:33.908Z,97.42
2022-10-21T17:33:00.784Z,97.45
2022-10-21T17:35:29.937Z,96.66
2022-10-21T17:37:56.769Z,96.50
2022-10-21T17:40:29.752Z,96.83
2022-10-21T17:42:58.383Z,97.87
2022-10-21T17:45:25.754Z,98.17
2022-10-21T17:47:55.053Z,98.36
2022-10-21T17:50:25.896Z,97.88
2022-10-21T17:52:54.757Z,97.98
2022-10-21T17:55:22.197Z,99.06
2022-10-21T17:57:49.240Z,100.00
2022-10-21T18:00:16.271Z,100.00
2022-10-21T18:02:45.733Z,100.00
2022-10-21T18:05:14.747Z,100.00
2022-10-21T18:07:41.885Z,99.10
2022-10-21T18:10:11.347Z,98.67
2022-10-21T18:12:38.438Z,97.88
2022-10-21T18:15:06.050Z,97.94
2022-10-21T18:17:37.205Z,98.57
2022-10-21T18:20:04.879Z,97.72
2022-10-21T18:22:35.468Z,96.91
2022-10-21T18:25:02.300Z,98.34
2022-10-21T18:27:31.471Z,98.55
2022-10-21T18:30:00.679Z,98.47
2022-10-21T18:32:27.520Z,97.64
2022-10-21T18:34:58.978Z,98.01
2022-10-21T18:37:28.463Z,97.77
2022-10-21T18:39:59.021Z,97.72
2022-10-21T18:42:26.073Z,99.28
2022-10-21T18:44:52.865Z,100.00
2022-10-21T18:47:19.752Z,100.00
2022-10-21T18:49:50.711Z,100.00
2022-10-21T18:52:19.742Z,99.80
2022-10-21T18:54:49.571Z,99.88
2022-10-21T18:57:16.409Z,100.00
2022-10-21T18:59:43.223Z,100.00
2022-10-21T19:02:20.602Z,100.00
2022-10-21T19:04:47.919Z,100.00
2022-10-21T19:07:17.863Z,100.00
2022-10-21T19:09:45.020Z,100.00
2022-10-21T19:12:15.542Z,100.00
2022-10-21T19:14:44.275Z,100.00
2022-10-21T19:17:12.872Z,100.00
2022-10-21T19:19:39.686Z,100.00
2022-10-21T19:22:08.780Z,100.00
2022-10-21T19:24:35.975Z,100.00
2022-10-21T19:27:02.801Z,100.00
2022-10-21T19:29:32.225Z,100.00
2022-10-21T19:32:02.196Z,100.00
2022-10-21T19:34:31.546Z,100.00
2022-10-21T19:36:58.345Z,100.00
2022-10-21T19:39:27.314Z,100.00
2022-10-21T19:41:54.176Z,100.00
2022-10-21T19:44:21.214Z,100.00
2022-10-21T19:46:48.056Z,100.00
2022-10-21T19:49:17.403Z,100.00
2022-10-21T19:51:47.135Z,100.00
2022-10-21T19:54:14.303Z,100.00
2022-10-21T19:56:43.893Z,100.00
2022-10-21T19:59:13.774Z,100.00
2022-10-21T20:01:43.217Z,100.00
2022-10-21T20:04:12.597Z,100.00
2022-10-21T20:06:43.157Z,100.00
2022-10-21T20:09:13.040Z,99.53
2022-10-21T20:11:44.032Z,99.46
2022-10-21T20:14:13.446Z,100.00
2022-10-21T20:16:42.265Z,99.95
2022-10-21T20:19:12.814Z,99.63
2022-10-21T20:21:46.160Z,99.24
2022-10-21T20:24:17.010Z,99.92
2022-10-21T20:26:45.493Z,99.40
2022-10-21T20:29:15.449Z,100.00
2022-10-21T20:31:45.093Z,99.32
2022-10-21T20:34:16.266Z,98.66
2022-10-21T20:36:43.125Z,100.00
2022-10-21T20:39:11.231Z,100.00
2022-10-21T20:41:38.584Z,100.00
2022-10-21T20:44:12.227Z,99.59
2022-10-21T20:46:39.070Z,99.90
2022-10-21T20:49:12.996Z,99.31
2022-10-21T20:51:49.668Z,99.08
2022-10-21T20:54:28.052Z,97.82
2022-10-21T20:56:54.997Z,99.19
2022-10-21T20:59:28.976Z,98.95
2022-10-21T21:01:55.924Z,99.05
2022-10-21T21:04:25.214Z,98.80
2022-10-21T21:06:52.323Z,99.05
2022-10-21T21:12:10.269Z,99.77
2022-10-21T21:14:40.026Z,99.46
2022-10-21T21:17:07.401Z,100.00
2022-10-21T21:19:34.219Z,100.00
2022-10-21T21:22:01.209Z,100.00
2022-10-21T21:24:31.300Z,100.00
2022-10-21T21:27:00.624Z,100.00
2022-10-21T21:29:27.637Z,100.00
2022-10-21T21:31:56.543Z,100.00
2022-10-21T21:34:25.549Z,100.00
2022-10-21T21:36:52.372Z,100.00
2022-10-21T21:39:25.291Z,100.00
2022-10-21T21:41:52.167Z,100.00
2022-10-21T21:44:21.942Z,100.00
2022-10-21T21:46:50.966Z,100.00
2022-10-21T21:49:17.774Z,100.00
2022-10-21T21:51:46.366Z,100.00
2022-10-21T21:54:13.215Z,100.00
2022-10-21T21:56:40.079Z,100.00
2022-10-21T21:59:09.168Z,100.00
2022-10-21T22:01:36.782Z,100.00
2022-10-21T22:04:06.034Z,100.00
2022-10-21T22:06:36.942Z,100.00
2022-10-21T22:09:13.238Z,100.00
2022-10-21T22:11:40.129Z,100.00
2022-10-21T22:14:11.492Z,100.00
2022-10-21T22:16:40.980Z,100.00
2022-10-21T22:19:10.194Z,100.00
2022-10-21T22:21:39.570Z,100.00
2022-10-21T22:24:08.876Z,100.00
2022-10-21T22:26:35.688Z,100.00
2022-10-21T22:29:02.466Z,100.00
2022-10-21T22:31:34.566Z,100.00
2022-10-21T22:34:06.511Z,100.00
2022-10-21T22:36:36.084Z,100.00
2022-10-21T22:39:05.900Z,100.00
2022-10-21T22:41:34.798Z,100.00
2022-10-21T22:44:06.319Z,100.00
2022-10-21T22:46:35.546Z,100.00
2022-10-21T22:49:09.758Z,100.00
2022-10-21T22:51:39.081Z,100.00
2022-10-21T22:54:19.274Z,100.00
2022-10-21T22:56:57.731Z,100.00
2022-10-21T22:59:24.518Z,100.00
2022-10-21T23:01:53.735Z,100.00
2022-10-21T23:04:20.581Z,100.00
2022-10-21T23:06:49.888Z,100.00
2022-10-21T23:09:16.831Z,100.00
2022-10-21T23:11:44.222Z,100.00
2022-10-21T23:14:11.269Z,100.00
2022-10-21T23:16:42.341Z,100.00
2022-10-21T23:19:09.851Z,100.00
2022-10-21T23:21:39.807Z,100.00
2022-10-21T23:24:07.116Z,100.00
2022-10-21T23:26:35.535Z,100.00
2022-10-21T23:29:02.541Z,100.00
2022-10-21T23:31:29.362Z,100.00
2022-10-21T23:33:56.244Z,100.00
2022-10-21T23:36:27.874Z,100.00
2022-10-21T23:38:56.611Z,100.00
2022-10-21T23:41:23.769Z,100.00
2022-10-21T23:43:52.881Z,100.00
2022-10-21T23:46:22.612Z,100.00
2022-10-21T23:48:51.950Z,100.00
2022-10-21T23:51:19.130Z,100.00
2022-10-21T23:53:45.965Z,100.00
2022-10-21T23:56:13.653Z,100.00
2022-10-21T23:58:40.481Z,100.00
